sensor_id;sensor_type;location;lat;lon;timestamp;P1;durP1;ratioP1;P2;durP2;ratioP2
50757;SDS011;36732;47.980;11.652;2022-07-26T00:01:07;5.05;;;2.60;;
50757;SDS011;36732;47.980;11.652;2022-07-26T00:03:33;5.68;;;2.40;;
50757;SDS011;36732;47.980;11.652;2022-07-26T00:05:59;5.13;;;2.50;;
50757;SDS011;36732;47.980;11.652;2022-07-26T00:08:25;3.63;;;2.60;;
50757;SDS011;36732;47.980;11.652;2022-07-26T00:10:51;3.40;;;2.30;;
50757;SDS011;36732;47.980;11.652;2022-07-26T00:13:17;3.38;;;2.03;;
50757;SDS011;36732;47.980;11.652;2022-07-26T00:15:45;3.47;;;2.17;;
50757;SDS011;36732;47.980;11.652;2022-07-26T00:18:13;3.72;;;2.40;;
50757;SDS011;36732;47.980;11.652;2022-07-26T00:20:40;4.05;;;2.50;;
50757;SDS011;36732;47.980;11.652;2022-07-26T00:23:06;3.90;;;2.30;;
50757;SDS011;36732;47.980;11.652;2022-07-26T00:25:32;4.72;;;2.78;;
50757;SDS011;36732;47.980;11.652;2022-07-26T00:27:58;3.53;;;2.35;;
50757;SDS011;36732;47.980;11.652;2022-07-26T00:30:24;3.72;;;2.83;;
50757;SDS011;36732;47.980;11.652;2022-07-26T00:32:50;4.60;;;2.80;;
50757;SDS011;36732;47.980;11.652;2022-07-26T00:35:17;4.55;;;2.58;;
50757;SDS011;36732;47.980;11.652;2022-07-26T00:37:44;3.83;;;2.42;;
50757;SDS011;36732;47.980;11.652;2022-07-26T00:40:10;4.22;;;2.63;;
50757;SDS011;36732;47.980;11.652;2022-07-26T00:42:36;3.95;;;2.38;;
50757;SDS011;36732;47.980;11.652;2022-07-26T00:45:03;2.65;;;2.10;;
50757;SDS011;36732;47.980;11.652;2022-07-26T00:47:30;3.80;;;2.17;;
50757;SDS011;36732;47.980;11.652;2022-07-26T00:49:56;2.05;;;1.80;;
50757;SDS011;36732;47.980;11.652;2022-07-26T00:52:22;3.92;;;2.22;;
50757;SDS011;36732;47.980;11.652;2022-07-26T00:54:48;3.45;;;2.10;;
50757;SDS011;36732;47.980;11.652;2022-07-26T00:57:14;1.60;;;1.50;;
50757;SDS011;36732;47.980;11.652;2022-07-26T00:59:40;3.13;;;1.65;;
50757;SDS011;36732;47.980;11.652;2022-07-26T01:02:07;3.47;;;1.65;;
50757;SDS011;36732;47.980;11.652;2022-07-26T01:04:33;2.63;;;1.65;;
50757;SDS011;36732;47.980;11.652;2022-07-26T01:07:00;2.03;;;1.75;;
50757;SDS011;36732;47.980;11.652;2022-07-26T01:09:27;1.95;;;1.63;;
50757;SDS011;36732;47.980;11.652;2022-07-26T01:11:53;1.83;;;1.65;;
50757;SDS011;36732;47.980;11.652;2022-07-26T01:14:20;2.25;;;1.60;;
50757;SDS011;36732;47.980;11.652;2022-07-26T01:16:47;2.67;;;2.13;;
50757;SDS011;36732;47.980;11.652;2022-07-26T01:19:13;2.63;;;2.28;;
50757;SDS011;36732;47.980;11.652;2022-07-26T01:21:39;2.50;;;1.70;;
50757;SDS011;36732;47.980;11.652;2022-07-26T01:24:05;3.65;;;2.00;;
50757;SDS011;36732;47.980;11.652;2022-07-26T01:26:31;2.50;;;2.05;;
50757;SDS011;36732;47.980;11.652;2022-07-26T01:28:57;3.55;;;2.00;;
50757;SDS011;36732;47.980;11.652;2022-07-26T01:31:23;2.25;;;2.03;;
50757;SDS011;36732;47.980;11.652;2022-07-26T01:33:49;1.92;;;1.45;;
50757;SDS011;36732;47.980;11.652;2022-07-26T01:36:15;3.00;;;1.98;;
50757;SDS011;36732;47.980;11.652;2022-07-26T01:38:41;1.75;;;1.52;;
50757;SDS011;36732;47.980;11.652;2022-07-26T01:41:08;2.78;;;2.05;;
50757;SDS011;36732;47.980;11.652;2022-07-26T01:43:34;3.03;;;2.05;;
50757;SDS011;36732;47.980;11.652;2022-07-26T01:46:01;2.05;;;1.63;;
50757;SDS011;36732;47.980;11.652;2022-07-26T01:48:28;2.85;;;2.13;;
50757;SDS011;36732;47.980;11.652;2022-07-26T01:50:54;1.98;;;1.75;;
50757;SDS011;36732;47.980;11.652;2022-07-26T01:53:20;2.78;;;1.95;;
50757;SDS011;36732;47.980;11.652;2022-07-26T01:55:46;2.38;;;1.70;;
50757;SDS011;36732;47.980;11.652;2022-07-26T01:58:12;2.72;;;1.95;;
50757;SDS011;36732;47.980;11.652;2022-07-26T02:00:38;2.15;;;1.95;;
50757;SDS011;36732;47.980;11.652;2022-07-26T02:03:04;2.28;;;1.98;;
50757;SDS011;36732;47.980;11.652;2022-07-26T02:05:30;2.80;;;1.83;;
50757;SDS011;36732;47.980;11.652;2022-07-26T02:07:56;2.78;;;1.90;;
50757;SDS011;36732;47.980;11.652;2022-07-26T02:10:22;1.95;;;1.75;;
50757;SDS011;36732;47.980;11.652;2022-07-26T02:12:48;2.00;;;1.40;;
50757;SDS011;36732;47.980;11.652;2022-07-26T02:15:15;1.98;;;1.50;;
50757;SDS011;36732;47.980;11.652;2022-07-26T02:17:41;1.83;;;1.58;;
50757;SDS011;36732;47.980;11.652;2022-07-26T02:20:07;2.47;;;1.50;;
50757;SDS011;36732;47.980;11.652;2022-07-26T02:22:34;4.65;;;1.88;;
50757;SDS011;36732;47.980;11.652;2022-07-26T02:25:00;2.33;;;1.50;;
50757;SDS011;36732;47.980;11.652;2022-07-26T02:27:26;1.75;;;1.60;;
50757;SDS011;36732;47.980;11.652;2022-07-26T02:29:52;2.33;;;1.65;;
50757;SDS011;36732;47.980;11.652;2022-07-26T02:32:17;1.73;;;1.63;;
50757;SDS011;36732;47.980;11.652;2022-07-26T02:34:43;1.90;;;1.50;;
50757;SDS011;36732;47.980;11.652;2022-07-26T02:37:09;1.88;;;1.45;;
50757;SDS011;36732;47.980;11.652;2022-07-26T02:39:34;2.20;;;1.52;;
50757;SDS011;36732;47.980;11.652;2022-07-26T02:42:00;1.40;;;1.30;;
50757;SDS011;36732;47.980;11.652;2022-07-26T02:44:27;2.65;;;1.50;;
50757;SDS011;36732;47.980;11.652;2022-07-26T02:46:54;1.50;;;1.40;;
50757;SDS011;36732;47.980;11.652;2022-07-26T02:49:20;1.50;;;1.33;;
50757;SDS011;36732;47.980;11.652;2022-07-26T02:51:46;3.85;;;1.38;;
50757;SDS011;36732;47.980;11.652;2022-07-26T02:54:13;1.50;;;1.27;;
50757;SDS011;36732;47.980;11.652;2022-07-26T02:56:39;1.85;;;1.30;;
50757;SDS011;36732;47.980;11.652;2022-07-26T02:59:05;1.50;;;1.40;;
50757;SDS011;36732;47.980;11.652;2022-07-26T03:01:31;3.33;;;1.77;;
50757;SDS011;36732;47.980;11.652;2022-07-26T03:03:59;3.28;;;1.75;;
50757;SDS011;36732;47.980;11.652;2022-07-26T03:06:26;4.43;;;1.83;;
50757;SDS011;36732;47.980;11.652;2022-07-26T03:08:51;2.03;;;1.33;;
50757;SDS011;36732;47.980;11.652;2022-07-26T03:11:17;3.45;;;1.75;;
50757;SDS011;36732;47.980;11.652;2022-07-26T03:13:43;1.45;;;1.35;;
50757;SDS011;36732;47.980;11.652;2022-07-26T03:16:09;3.42;;;1.60;;
50757;SDS011;36732;47.980;11.652;2022-07-26T03:18:35;2.72;;;1.73;;
50757;SDS011;36732;47.980;11.652;2022-07-26T03:21:01;4.00;;;2.05;;
50757;SDS011;36732;47.980;11.652;2022-07-26T03:23:27;3.25;;;1.80;;
50757;SDS011;36732;47.980;11.652;2022-07-26T03:25:52;1.67;;;1.48;;
50757;SDS011;36732;47.980;11.652;2022-07-26T03:28:18;1.98;;;1.75;;
50757;SDS011;36732;47.980;11.652;2022-07-26T03:30:44;2.58;;;2.10;;
50757;SDS011;36732;47.980;11.652;2022-07-26T03:33:09;1.58;;;1.42;;
50757;SDS011;36732;47.980;11.652;2022-07-26T03:35:35;2.53;;;1.67;;
50757;SDS011;36732;47.980;11.652;2022-07-26T03:38:01;1.95;;;1.60;;
50757;SDS011;36732;47.980;11.652;2022-07-26T03:40:27;2.53;;;1.58;;
50757;SDS011;36732;47.980;11.652;2022-07-26T03:42:53;2.78;;;1.60;;
50757;SDS011;36732;47.980;11.652;2022-07-26T03:45:19;2.20;;;1.63;;
50757;SDS011;36732;47.980;11.652;2022-07-26T03:47:44;7.07;;;1.95;;
50757;SDS011;36732;47.980;11.652;2022-07-26T03:50:10;1.65;;;1.55;;
50757;SDS011;36732;47.980;11.652;2022-07-26T03:52:37;5.25;;;1.77;;
50757;SDS011;36732;47.980;11.652;2022-07-26T03:55:04;2.05;;;1.70;;
50757;SDS011;36732;47.980;11.652;2022-07-26T03:57:50;2.47;;;1.75;;
50757;SDS011;36732;47.980;11.652;2022-07-26T04:00:16;2.08;;;1.55;;
50757;SDS011;36732;47.980;11.652;2022-07-26T04:02:42;2.22;;;1.60;;
50757;SDS011;36732;47.980;11.652;2022-07-26T04:05:08;3.05;;;1.40;;
50757;SDS011;36732;47.980;11.652;2022-07-26T04:07:41;2.38;;;1.65;;
50757;SDS011;36732;47.980;11.652;2022-07-26T04:10:11;3.25;;;1.70;;
50757;SDS011;36732;47.980;11.652;2022-07-26T04:12:37;3.10;;;1.65;;
50757;SDS011;36732;47.980;11.652;2022-07-26T04:15:04;2.30;;;1.65;;
50757;SDS011;36732;47.980;11.652;2022-07-26T04:17:40;2.08;;;1.55;;
50757;SDS011;36732;47.980;11.652;2022-07-26T04:20:07;2.40;;;1.63;;
50757;SDS011;36732;47.980;11.652;2022-07-26T04:22:34;1.77;;;1.67;;
50757;SDS011;36732;47.980;11.652;2022-07-26T04:25:02;2.65;;;1.70;;
50757;SDS011;36732;47.980;11.652;2022-07-26T04:27:30;2.80;;;1.50;;
50757;SDS011;36732;47.980;11.652;2022-07-26T04:29:56;2.53;;;1.58;;
50757;SDS011;36732;47.980;11.652;2022-07-26T04:32:21;1.98;;;1.60;;
50757;SDS011;36732;47.980;11.652;2022-07-26T04:34:47;2.05;;;1.52;;
50757;SDS011;36732;47.980;11.652;2022-07-26T04:37:13;2.80;;;1.90;;
50757;SDS011;36732;47.980;11.652;2022-07-26T04:39:39;2.15;;;1.50;;
50757;SDS011;36732;47.980;11.652;2022-07-26T04:42:04;2.80;;;1.63;;
50757;SDS011;36732;47.980;11.652;2022-07-26T04:44:30;1.88;;;1.45;;
50757;SDS011;36732;47.980;11.652;2022-07-26T04:46:56;3.63;;;1.83;;
50757;SDS011;36732;47.980;11.652;2022-07-26T04:49:22;2.80;;;1.88;;
50757;SDS011;36732;47.980;11.652;2022-07-26T04:51:47;3.92;;;1.75;;
50757;SDS011;36732;47.980;11.652;2022-07-26T04:54:13;2.13;;;1.60;;
50757;SDS011;36732;47.980;11.652;2022-07-26T04:56:44;3.40;;;1.77;;
50757;SDS011;36732;47.980;11.652;2022-07-26T04:59:11;2.65;;;1.60;;
50757;SDS011;36732;47.980;11.652;2022-07-26T05:01:37;4.25;;;1.70;;
50757;SDS011;36732;47.980;11.652;2022-07-26T05:04:03;2.28;;;1.73;;
50757;SDS011;36732;47.980;11.652;2022-07-26T05:06:29;3.38;;;1.70;;
50757;SDS011;36732;47.980;11.652;2022-07-26T05:08:56;2.55;;;1.80;;
50757;SDS011;36732;47.980;11.652;2022-07-26T05:11:22;2.00;;;1.50;;
50757;SDS011;36732;47.980;11.652;2022-07-26T05:13:48;2.45;;;1.50;;
50757;SDS011;36732;47.980;11.652;2022-07-26T05:16:14;1.58;;;1.40;;
50757;SDS011;36732;47.980;11.652;2022-07-26T05:18:40;1.52;;;1.40;;
50757;SDS011;36732;47.980;11.652;2022-07-26T05:21:06;1.90;;;1.63;;
50757;SDS011;36732;47.980;11.652;2022-07-26T05:23:31;2.58;;;1.90;;
50757;SDS011;36732;47.980;11.652;2022-07-26T05:25:57;2.97;;;1.80;;
50757;SDS011;36732;47.980;11.652;2022-07-26T05:28:23;1.73;;;1.50;;
50757;SDS011;36732;47.980;11.652;2022-07-26T05:30:49;2.75;;;1.95;;
50757;SDS011;36732;47.980;11.652;2022-07-26T05:33:14;1.63;;;1.50;;
50757;SDS011;36732;47.980;11.652;2022-07-26T05:35:40;1.73;;;1.52;;
50757;SDS011;36732;47.980;11.652;2022-07-26T05:38:06;3.78;;;1.45;;
50757;SDS011;36732;47.980;11.652;2022-07-26T05:40:31;2.83;;;1.35;;
50757;SDS011;36732;47.980;11.652;2022-07-26T05:42:57;3.45;;;1.63;;
50757;SDS011;36732;47.980;11.652;2022-07-26T05:45:23;1.50;;;1.40;;
50757;SDS011;36732;47.980;11.652;2022-07-26T05:47:49;1.88;;;1.30;;
50757;SDS011;36732;47.980;11.652;2022-07-26T05:50:15;2.67;;;1.65;;
50757;SDS011;36732;47.980;11.652;2022-07-26T05:52:42;3.47;;;1.77;;
50757;SDS011;36732;47.980;11.652;2022-07-26T05:55:08;3.13;;;1.50;;
50757;SDS011;36732;47.980;11.652;2022-07-26T05:57:34;3.08;;;1.40;;
50757;SDS011;36732;47.980;11.652;2022-07-26T05:59:59;2.95;;;1.65;;
50757;SDS011;36732;47.980;11.652;2022-07-26T06:02:25;2.78;;;1.30;;
50757;SDS011;36732;47.980;11.652;2022-07-26T06:04:51;2.22;;;1.55;;
50757;SDS011;36732;47.980;11.652;2022-07-26T06:07:17;2.08;;;1.70;;
50757;SDS011;36732;47.980;11.652;2022-07-26T06:09:42;1.52;;;1.25;;
50757;SDS011;36732;47.980;11.652;2022-07-26T06:12:08;1.52;;;1.42;;
50757;SDS011;36732;47.980;11.652;2022-07-26T06:14:34;1.50;;;1.40;;
50757;SDS011;36732;47.980;11.652;2022-07-26T06:17:00;3.25;;;1.35;;
50757;SDS011;36732;47.980;11.652;2022-07-26T06:19:28;1.25;;;1.10;;
50757;SDS011;36732;47.980;11.652;2022-07-26T06:21:54;1.17;;;1.08;;
50757;SDS011;36732;47.980;11.652;2022-07-26T06:24:20;3.53;;;1.52;;
50757;SDS011;36732;47.980;11.652;2022-07-26T06:26:46;1.70;;;1.60;;
50757;SDS011;36732;47.980;11.652;2022-07-26T06:29:14;1.92;;;1.80;;
50757;SDS011;36732;47.980;11.652;2022-07-26T06:31:39;3.28;;;1.70;;
50757;SDS011;36732;47.980;11.652;2022-07-26T06:34:05;2.75;;;1.60;;
50757;SDS011;36732;47.980;11.652;2022-07-26T06:36:31;3.33;;;1.42;;
50757;SDS011;36732;47.980;11.652;2022-07-26T06:38:57;1.90;;;1.42;;
50757;SDS011;36732;47.980;11.652;2022-07-26T06:41:22;1.55;;;1.25;;
50757;SDS011;36732;47.980;11.652;2022-07-26T06:43:48;3.00;;;1.63;;
50757;SDS011;36732;47.980;11.652;2022-07-26T06:46:14;2.22;;;1.48;;
50757;SDS011;36732;47.980;11.652;2022-07-26T06:48:40;1.85;;;1.42;;
50757;SDS011;36732;47.980;11.652;2022-07-26T06:51:06;3.20;;;1.65;;
50757;SDS011;36732;47.980;11.652;2022-07-26T06:53:34;3.95;;;1.70;;
50757;SDS011;36732;47.980;11.652;2022-07-26T06:56:00;3.15;;;1.60;;
50757;SDS011;36732;47.980;11.652;2022-07-26T06:58:26;1.45;;;1.30;;
50757;SDS011;36732;47.980;11.652;2022-07-26T07:00:52;1.77;;;1.33;;
50757;SDS011;36732;47.980;11.652;2022-07-26T07:03:17;2.40;;;1.60;;
50757;SDS011;36732;47.980;11.652;2022-07-26T07:05:43;3.88;;;1.60;;
50757;SDS011;36732;47.980;11.652;2022-07-26T07:08:10;2.42;;;1.77;;
50757;SDS011;36732;47.980;11.652;2022-07-26T07:10:36;2.83;;;1.20;;
50757;SDS011;36732;47.980;11.652;2022-07-26T07:13:03;1.65;;;1.33;;
50757;SDS011;36732;47.980;11.652;2022-07-26T07:15:28;2.00;;;1.50;;
50757;SDS011;36732;47.980;11.652;2022-07-26T07:17:54;1.70;;;1.60;;
50757;SDS011;36732;47.980;11.652;2022-07-26T07:20:20;1.50;;;1.30;;
50757;SDS011;36732;47.980;11.652;2022-07-26T07:22:46;1.92;;;1.20;;
50757;SDS011;36732;47.980;11.652;2022-07-26T07:25:11;1.30;;;1.20;;
50757;SDS011;36732;47.980;11.652;2022-07-26T07:27:37;2.17;;;1.38;;
50757;SDS011;36732;47.980;11.652;2022-07-26T07:30:03;1.40;;;1.30;;
50757;SDS011;36732;47.980;11.652;2022-07-26T07:32:30;1.33;;;1.23;;
50757;SDS011;36732;47.980;11.652;2022-07-26T07:34:56;1.75;;;1.10;;
50757;SDS011;36732;47.980;11.652;2022-07-26T07:37:22;1.98;;;1.55;;
50757;SDS011;36732;47.980;11.652;2022-07-26T07:39:48;1.92;;;1.52;;
50757;SDS011;36732;47.980;11.652;2022-07-26T07:42:13;2.00;;;1.75;;
50757;SDS011;36732;47.980;11.652;2022-07-26T07:44:39;3.45;;;2.10;;
50757;SDS011;36732;47.980;11.652;2022-07-26T07:47:07;3.47;;;1.80;;
50757;SDS011;36732;47.980;11.652;2022-07-26T07:49:33;3.08;;;1.90;;
50757;SDS011;36732;47.980;11.652;2022-07-26T07:52:00;2.13;;;1.60;;
50757;SDS011;36732;47.980;11.652;2022-07-26T07:54:25;2.50;;;1.60;;
50757;SDS011;36732;47.980;11.652;2022-07-26T07:56:51;2.75;;;1.45;;
50757;SDS011;36732;47.980;11.652;2022-07-26T07:59:20;1.77;;;1.30;;
50757;SDS011;36732;47.980;11.652;2022-07-26T08:01:46;3.30;;;1.50;;
50757;SDS011;36732;47.980;11.652;2022-07-26T08:04:12;1.92;;;1.35;;
50757;SDS011;36732;47.980;11.652;2022-07-26T08:06:38;1.42;;;1.23;;
50757;SDS011;36732;47.980;11.652;2022-07-26T08:09:04;2.25;;;1.33;;
50757;SDS011;36732;47.980;11.652;2022-07-26T08:11:30;1.50;;;0.95;;
50757;SDS011;36732;47.980;11.652;2022-07-26T08:13:55;2.28;;;1.10;;
50757;SDS011;36732;47.980;11.652;2022-07-26T08:16:21;1.67;;;1.05;;
50757;SDS011;36732;47.980;11.652;2022-07-26T08:18:47;3.88;;;1.40;;
50757;SDS011;36732;47.980;11.652;2022-07-26T08:21:12;1.35;;;1.02;;
50757;SDS011;36732;47.980;11.652;2022-07-26T08:23:38;1.10;;;0.70;;
50757;SDS011;36732;47.980;11.652;2022-07-26T08:26:04;1.35;;;1.13;;
50757;SDS011;36732;47.980;11.652;2022-07-26T08:28:30;2.33;;;1.38;;
50757;SDS011;36732;47.980;11.652;2022-07-26T08:30:56;1.60;;;1.10;;
50757;SDS011;36732;47.980;11.652;2022-07-26T08:33:22;1.40;;;1.15;;
50757;SDS011;36732;47.980;11.652;2022-07-26T08:35:48;1.83;;;1.40;;
50757;SDS011;36732;47.980;11.652;2022-07-26T08:38:14;1.30;;;1.20;;
50757;SDS011;36732;47.980;11.652;2022-07-26T08:40:39;3.22;;;1.45;;
50757;SDS011;36732;47.980;11.652;2022-07-26T08:43:05;2.10;;;1.40;;
50757;SDS011;36732;47.980;11.652;2022-07-26T08:45:32;2.05;;;1.23;;
50757;SDS011;36732;47.980;11.652;2022-07-26T08:47:58;1.98;;;1.08;;
50757;SDS011;36732;47.980;11.652;2022-07-26T08:50:25;3.08;;;1.60;;
50757;SDS011;36732;47.980;11.652;2022-07-26T08:52:59;1.67;;;1.23;;
50757;SDS011;36732;47.980;11.652;2022-07-26T08:55:27;2.88;;;1.50;;
50757;SDS011;36732;47.980;11.652;2022-07-26T08:57:53;1.10;;;1.00;;
50757;SDS011;36732;47.980;11.652;2022-07-26T09:00:20;1.70;;;1.15;;
50757;SDS011;36732;47.980;11.652;2022-07-26T09:02:53;1.73;;;1.00;;
50757;SDS011;36732;47.980;11.652;2022-07-26T09:05:28;1.88;;;1.00;;
50757;SDS011;36732;47.980;11.652;2022-07-26T09:08:20;3.03;;;1.20;;
50757;SDS011;36732;47.980;11.652;2022-07-26T09:10:48;1.48;;;0.93;;
50757;SDS011;36732;47.980;11.652;2022-07-26T09:13:14;2.10;;;0.90;;
50757;SDS011;36732;47.980;11.652;2022-07-26T09:15:40;1.33;;;1.10;;
50757;SDS011;36732;47.980;11.652;2022-07-26T09:18:06;2.53;;;1.10;;
50757;SDS011;36732;47.980;11.652;2022-07-26T09:20:51;1.20;;;1.02;;
50757;SDS011;36732;47.980;11.652;2022-07-26T09:23:16;1.20;;;1.00;;
50757;SDS011;36732;47.980;11.652;2022-07-26T09:25:43;2.83;;;1.35;;
50757;SDS011;36732;47.980;11.652;2022-07-26T09:28:28;0.80;;;0.70;;
50757;SDS011;36732;47.980;11.652;2022-07-26T09:31:02;1.10;;;0.93;;
50757;SDS011;36732;47.980;11.652;2022-07-26T09:33:50;1.88;;;1.10;;
50757;SDS011;36732;47.980;11.652;2022-07-26T09:36:16;1.77;;;0.82;;
50757;SDS011;36732;47.980;11.652;2022-07-26T09:38:44;1.27;;;1.10;;
50757;SDS011;36732;47.980;11.652;2022-07-26T09:41:29;1.00;;;0.77;;
50757;SDS011;36732;47.980;11.652;2022-07-26T09:43:59;0.85;;;0.80;;
50757;SDS011;36732;47.980;11.652;2022-07-26T09:46:31;1.02;;;0.90;;
50757;SDS011;36732;47.980;11.652;2022-07-26T09:49:14;1.73;;;1.00;;
50757;SDS011;36732;47.980;11.652;2022-07-26T09:51:43;1.45;;;1.00;;
50757;SDS011;36732;47.980;11.652;2022-07-26T09:54:15;1.63;;;1.30;;
50757;SDS011;36732;47.980;11.652;2022-07-26T09:56:53;1.08;;;0.95;;
50757;SDS011;36732;47.980;11.652;2022-07-26T09:59:19;0.70;;;0.70;;
50757;SDS011;36732;47.980;11.652;2022-07-26T10:01:47;2.50;;;1.02;;
50757;SDS011;36732;47.980;11.652;2022-07-26T10:04:15;1.00;;;0.70;;
50757;SDS011;36732;47.980;11.652;2022-07-26T10:06:41;1.55;;;0.80;;
50757;SDS011;36732;47.980;11.652;2022-07-26T10:09:08;0.85;;;0.70;;
50757;SDS011;36732;47.980;11.652;2022-07-26T10:11:40;1.75;;;0.90;;
50757;SDS011;36732;47.980;11.652;2022-07-26T10:14:37;1.35;;;0.93;;
50757;SDS011;36732;47.980;11.652;2022-07-26T10:19:57;5.03;;;1.00;;
50757;SDS011;36732;47.980;11.652;2022-07-26T10:22:32;1.30;;;0.90;;
50757;SDS011;36732;47.980;11.652;2022-07-26T10:27:42;1.85;;;1.33;;
50757;SDS011;36732;47.980;11.652;2022-07-26T10:35:29;1.30;;;1.10;;
50757;SDS011;36732;47.980;11.652;2022-07-26T10:38:02;1.33;;;0.90;;
50757;SDS011;36732;47.980;11.652;2022-07-26T10:43:24;1.25;;;1.13;;
50757;SDS011;36732;47.980;11.652;2022-07-26T10:46:33;2.45;;;0.90;;
50757;SDS011;36732;47.980;11.652;2022-07-26T10:48:56;1.30;;;0.90;;
50757;SDS011;36732;47.980;11.652;2022-07-26T10:51:29;1.88;;;1.02;;
50757;SDS011;36732;47.980;11.652;2022-07-26T10:54:04;1.30;;;0.90;;
50757;SDS011;36732;47.980;11.652;2022-07-26T10:56:32;1.30;;;1.00;;
50757;SDS011;36732;47.980;11.652;2022-07-26T10:58:58;0.88;;;0.80;;
50757;SDS011;36732;47.980;11.652;2022-07-26T11:01:58;2.10;;;1.00;;
50757;SDS011;36732;47.980;11.652;2022-07-26T11:04:20;1.20;;;0.80;;
50757;SDS011;36732;47.980;11.652;2022-07-26T11:06:47;2.50;;;0.80;;
50757;SDS011;36732;47.980;11.652;2022-07-26T11:09:13;4.53;;;1.25;;
50757;SDS011;36732;47.980;11.652;2022-07-26T11:11:39;0.70;;;0.70;;
50757;SDS011;36732;47.980;11.652;2022-07-26T11:14:06;1.15;;;0.93;;
50757;SDS011;36732;47.980;11.652;2022-07-26T11:16:38;1.35;;;1.00;;
50757;SDS011;36732;47.980;11.652;2022-07-26T11:19:16;3.85;;;1.08;;
50757;SDS011;36732;47.980;11.652;2022-07-26T11:21:57;1.85;;;0.90;;
50757;SDS011;36732;47.980;11.652;2022-07-26T11:24:24;1.40;;;1.10;;
50757;SDS011;36732;47.980;11.652;2022-07-26T11:26:51;1.45;;;1.05;;
50757;SDS011;36732;47.980;11.652;2022-07-26T11:29:27;1.60;;;1.25;;
50757;SDS011;36732;47.980;11.652;2022-07-26T11:31:54;1.58;;;1.08;;
50757;SDS011;36732;47.980;11.652;2022-07-26T11:34:24;0.95;;;0.85;;
50757;SDS011;36732;47.980;11.652;2022-07-26T11:36:53;1.75;;;1.40;;
50757;SDS011;36732;47.980;11.652;2022-07-26T11:39:25;1.23;;;1.13;;
50757;SDS011;36732;47.980;11.652;2022-07-26T11:41:59;1.08;;;0.82;;
50757;SDS011;36732;47.980;11.652;2022-07-26T11:44:28;1.00;;;0.90;;
50757;SDS011;36732;47.980;11.652;2022-07-26T11:46:54;1.00;;;0.90;;
50757;SDS011;36732;47.980;11.652;2022-07-26T11:49:25;1.83;;;0.95;;
50757;SDS011;36732;47.980;11.652;2022-07-26T11:51:55;1.15;;;0.85;;
50757;SDS011;36732;47.980;11.652;2022-07-26T11:54:24;1.88;;;1.25;;
50757;SDS011;36732;47.980;11.652;2022-07-26T11:56:54;1.10;;;1.00;;
50757;SDS011;36732;47.980;11.652;2022-07-26T11:59:29;2.17;;;1.20;;
50757;SDS011;36732;47.980;11.652;2022-07-26T12:01:58;1.10;;;1.00;;
50757;SDS011;36732;47.980;11.652;2022-07-26T12:04:27;1.60;;;0.82;;
50757;SDS011;36732;47.980;11.652;2022-07-26T12:06:55;1.08;;;0.98;;
50757;SDS011;36732;47.980;11.652;2022-07-26T12:09:32;2.40;;;1.10;;
50757;SDS011;36732;47.980;11.652;2022-07-26T12:12:03;1.50;;;1.15;;
50757;SDS011;36732;47.980;11.652;2022-07-26T12:15:03;2.85;;;0.95;;
50757;SDS011;36732;47.980;11.652;2022-07-26T12:17:31;0.85;;;0.85;;
50757;SDS011;36732;47.980;11.652;2022-07-26T12:20:16;1.40;;;1.10;;
50757;SDS011;36732;47.980;11.652;2022-07-26T12:22:55;1.05;;;0.90;;
50757;SDS011;36732;47.980;11.652;2022-07-26T12:25:27;1.05;;;0.88;;
50757;SDS011;36732;47.980;11.652;2022-07-26T12:27:54;1.10;;;0.98;;
50757;SDS011;36732;47.980;11.652;2022-07-26T12:30:20;1.33;;;1.08;;
50757;SDS011;36732;47.980;11.652;2022-07-26T12:32:47;1.23;;;1.00;;
50757;SDS011;36732;47.980;11.652;2022-07-26T12:35:15;0.80;;;0.80;;
50757;SDS011;36732;47.980;11.652;2022-07-26T12:37:49;2.53;;;0.93;;
50757;SDS011;36732;47.980;11.652;2022-07-26T12:40:18;1.30;;;1.10;;
50757;SDS011;36732;47.980;11.652;2022-07-26T12:42:56;1.42;;;1.30;;
50757;SDS011;36732;47.980;11.652;2022-07-26T12:45:26;1.40;;;1.10;;
50757;SDS011;36732;47.980;11.652;2022-07-26T12:47:57;1.35;;;1.05;;
50757;SDS011;36732;47.980;11.652;2022-07-26T12:50:26;2.28;;;1.00;;
50757;SDS011;36732;47.980;11.652;2022-07-26T12:53:01;1.20;;;0.95;;
50757;SDS011;36732;47.980;11.652;2022-07-26T12:55:32;1.00;;;0.90;;
50757;SDS011;36732;47.980;11.652;2022-07-26T12:57:59;1.02;;;0.93;;
50757;SDS011;36732;47.980;11.652;2022-07-26T13:00:25;1.33;;;1.00;;
50757;SDS011;36732;47.980;11.652;2022-07-26T13:02:52;0.90;;;0.75;;
50757;SDS011;36732;47.980;11.652;2022-07-26T13:05:20;2.70;;;1.00;;
50757;SDS011;36732;47.980;11.652;2022-07-26T13:07:46;1.10;;;1.00;;
50757;SDS011;36732;47.980;11.652;2022-07-26T13:10:12;1.25;;;1.08;;
50757;SDS011;36732;47.980;11.652;2022-07-26T13:12:37;1.92;;;1.10;;
50757;SDS011;36732;47.980;11.652;2022-07-26T13:15:05;1.83;;;1.08;;
50757;SDS011;36732;47.980;11.652;2022-07-26T13:17:31;1.17;;;1.08;;
50757;SDS011;36732;47.980;11.652;2022-07-26T13:19:57;2.22;;;1.10;;
50757;SDS011;36732;47.980;11.652;2022-07-26T13:22:23;2.00;;;1.20;;
50757;SDS011;36732;47.980;11.652;2022-07-26T13:24:48;0.85;;;0.80;;
50757;SDS011;36732;47.980;11.652;2022-07-26T13:27:14;1.20;;;0.98;;
50757;SDS011;36732;47.980;11.652;2022-07-26T13:29:40;1.83;;;0.95;;
50757;SDS011;36732;47.980;11.652;2022-07-26T13:32:06;1.10;;;0.93;;
50757;SDS011;36732;47.980;11.652;2022-07-26T13:34:31;1.70;;;0.98;;
50757;SDS011;36732;47.980;11.652;2022-07-26T13:36:58;1.25;;;1.10;;
50757;SDS011;36732;47.980;11.652;2022-07-26T13:39:24;0.90;;;0.90;;
50757;SDS011;36732;47.980;11.652;2022-07-26T13:41:51;0.90;;;0.90;;
50757;SDS011;36732;47.980;11.652;2022-07-26T13:44:18;2.92;;;1.20;;
50757;SDS011;36732;47.980;11.652;2022-07-26T13:46:43;1.35;;;0.90;;
50757;SDS011;36732;47.980;11.652;2022-07-26T13:49:09;1.67;;;1.02;;
50757;SDS011;36732;47.980;11.652;2022-07-26T13:51:36;1.35;;;1.00;;
50757;SDS011;36732;47.980;11.652;2022-07-26T13:54:21;1.10;;;1.00;;
50757;SDS011;36732;47.980;11.652;2022-07-26T13:56:51;0.93;;;0.90;;
50757;SDS011;36732;47.980;11.652;2022-07-26T13:59:18;1.20;;;0.90;;
50757;SDS011;36732;47.980;11.652;2022-07-26T14:01:44;2.13;;;1.13;;
50757;SDS011;36732;47.980;11.652;2022-07-26T14:04:10;2.47;;;1.05;;
50757;SDS011;36732;47.980;11.652;2022-07-26T14:06:36;4.43;;;1.13;;
50757;SDS011;36732;47.980;11.652;2022-07-26T14:09:03;1.30;;;0.98;;
50757;SDS011;36732;47.980;11.652;2022-07-26T14:11:29;3.45;;;0.98;;
50757;SDS011;36732;47.980;11.652;2022-07-26T14:13:56;1.90;;;1.00;;
50757;SDS011;36732;47.980;11.652;2022-07-26T14:16:22;0.93;;;0.88;;
50757;SDS011;36732;47.980;11.652;2022-07-26T14:18:51;1.65;;;1.20;;
50757;SDS011;36732;47.980;11.652;2022-07-26T14:21:23;1.00;;;0.95;;
50757;SDS011;36732;47.980;11.652;2022-07-26T14:23:50;6.28;;;1.48;;
50757;SDS011;36732;47.980;11.652;2022-07-26T14:26:16;1.48;;;1.20;;
50757;SDS011;36732;47.980;11.652;2022-07-26T14:28:42;1.92;;;1.60;;
50757;SDS011;36732;47.980;11.652;2022-07-26T14:31:10;1.67;;;1.13;;
50757;SDS011;36732;47.980;11.652;2022-07-26T14:33:35;2.00;;;1.30;;
50757;SDS011;36732;47.980;11.652;2022-07-26T14:36:01;1.30;;;1.20;;
50757;SDS011;36732;47.980;11.652;2022-07-26T14:38:27;2.03;;;1.50;;
50757;SDS011;36732;47.980;11.652;2022-07-26T14:40:53;1.25;;;1.10;;
50757;SDS011;36732;47.980;11.652;2022-07-26T14:43:20;1.83;;;1.10;;
50757;SDS011;36732;47.980;11.652;2022-07-26T14:45:46;1.20;;;1.10;;
50757;SDS011;36732;47.980;11.652;2022-07-26T14:48:12;1.40;;;1.30;;
50757;SDS011;36732;47.980;11.652;2022-07-26T14:50:39;1.48;;;1.30;;